sensor_id;sensor_type;location;lat;lon;timestamp;pressure;altitude;pressure_sealevel;temperature;humidity
53522;BME280;39398;48.382;9.802;2023-06-22T00:00:12;93995.56;;;18.00;100.00
53522;BME280;39398;48.382;9.802;2023-06-22T00:05:14;93968.34;;;18.43;100.00
53522;BME280;39398;48.382;9.802;2023-06-22T00:10:15;93977.41;;;18.13;100.00
53522;BME280;39398;48.382;9.802;2023-06-22T00:15:19;93976.41;;;17.79;100.00
53522;BME280;39398;48.382;9.802;2023-06-22T00:20:20;93971.78;;;18.15;100.00
53522;BME280;39398;48.382;9.802;2023-06-22T00:25:22;93975.81;;;17.65;100.00
53522;BME280;39398;48.382;9.802;2023-06-22T00:30:25;93987.66;;;17.11;100.00
53522;BME280;39398;48.382;9.802;2023-06-22T00:35:27;93998.66;;;17.14;100.00
53522;BME280;39398;48.382;9.802;2023-06-22T00:40:30;93996.47;;;17.35;100.00
53522;BME280;39398;48.382;9.802;2023-06-22T00:45:33;93996.94;;;17.32;100.00
53522;BME280;39398;48.382;9.802;2023-06-22T00:50:35;93996.47;;;17.23;100.00
53522;BME280;39398;48.382;9.802;2023-06-22T00:55:39;93994.25;;;17.32;100.00
53522;BME280;39398;48.382;9.802;2023-06-22T01:00:43;93998.06;;;17.01;100.00
53522;BME280;39398;48.382;9.802;2023-06-22T01:05:46;94005.22;;;16.88;100.00
53522;BME280;39398;48.382;9.802;2023-06-22T01:10:51;94005.22;;;17.00;100.00
53522;BME280;39398;48.382;9.802;2023-06-22T01:16:01;94018.66;;;16.82;100.00
53522;BME280;39398;48.382;9.802;2023-06-22T01:21:04;94013.78;;;16.79;100.00
53522;BME280;39398;48.382;9.802;2023-06-22T01:26:13;94014.94;;;16.83;100.00
53522;BME280;39398;48.382;9.802;2023-06-22T01:31:22;94011.69;;;16.81;100.00
53522;BME280;39398;48.382;9.802;2023-06-22T01:36:25;94008.22;;;16.80;100.00
53522;BME280;39398;48.382;9.802;2023-06-22T01:41:29;94013.34;;;16.63;100.00
53522;BME280;39398;48.382;9.802;2023-06-22T01:46:34;94017.19;;;16.67;100.00
53522;BME280;39398;48.382;9.802;2023-06-22T01:51:36;94017.97;;;16.56;100.00
53522;BME280;39398;48.382;9.802;2023-06-22T01:56:38;94014.41;;;16.74;100.00
53522;BME280;39398;48.382;9.802;2023-06-22T02:01:44;94021.41;;;16.75;100.00
53522;BME280;39398;48.382;9.802;2023-06-22T02:06:50;94019.69;;;16.81;100.00
53522;BME280;39398;48.382;9.802;2023-06-22T02:11:54;94019.31;;;16.77;100.00
53522;BME280;39398;48.382;9.802;2023-06-22T02:16:59;94020.19;;;16.89;100.00
53522;BME280;39398;48.382;9.802;2023-06-22T02:22:01;94023.00;;;16.94;100.00
53522;BME280;39398;48.382;9.802;2023-06-22T02:27:03;94016.47;;;16.90;100.00
53522;BME280;39398;48.382;9.802;2023-06-22T02:32:07;94016.47;;;16.90;100.00
53522;BME280;39398;48.382;9.802;2023-06-22T02:37:09;94015.16;;;16.81;100.00
53522;BME280;39398;48.382;9.802;2023-06-22T02:42:10;94022.66;;;16.72;100.00
53522;BME280;39398;48.382;9.802;2023-06-22T02:47:13;94016.47;;;16.60;100.00
53522;BME280;39398;48.382;9.802;2023-06-22T02:52:15;94014.59;;;16.61;100.00
53522;BME280;39398;48.382;9.802;2023-06-22T02:57:17;94018.53;;;16.58;100.00
53522;BME280;39398;48.382;9.802;2023-06-22T03:02:20;94025.41;;;16.66;100.00
53522;BME280;39398;48.382;9.802;2023-06-22T03:07:21;94020.63;;;16.86;100.00
53522;BME280;39398;48.382;9.802;2023-06-22T03:12:23;94011.97;;;17.03;100.00
53522;BME280;39398;48.382;9.802;2023-06-22T03:17:26;94008.03;;;17.05;100.00
53522;BME280;39398;48.382;9.802;2023-06-22T03:22:28;94005.22;;;16.88;100.00
53522;BME280;39398;48.382;9.802;2023-06-22T03:27:29;93993.34;;;16.72;100.00
53522;BME280;39398;48.382;9.802;2023-06-22T03:32:33;94006.69;;;16.54;100.00
53522;BME280;39398;48.382;9.802;2023-06-22T03:37:34;94014.72;;;16.36;100.00
53522;BME280;39398;48.382;9.802;2023-06-22T03:42:36;94019.50;;;16.34;100.00
53522;BME280;39398;48.382;9.802;2023-06-22T03:47:39;94022.06;;;16.40;100.00
53522;BME280;39398;48.382;9.802;2023-06-22T03:52:41;94027.94;;;16.61;100.00
53522;BME280;39398;48.382;9.802;2023-06-22T03:57:43;94020.38;;;16.58;100.00
53522;BME280;39398;48.382;9.802;2023-06-22T04:02:46;94027.78;;;16.56;100.00
53522;BME280;39398;48.382;9.802;2023-06-22T04:07:47;94015.31;;;16.68;100.00
53522;BME280;39398;48.382;9.802;2023-06-22T04:12:49;94010.28;;;16.78;100.00
53522;BME280;39398;48.382;9.802;2023-06-22T04:17:54;94006.00;;;16.77;100.00
53522;BME280;39398;48.382;9.802;2023-06-22T04:22:56;94009.09;;;16.74;100.00
53522;BME280;39398;48.382;9.802;2023-06-22T04:27:57;94002.91;;;16.92;100.00
53522;BME280;39398;48.382;9.802;2023-06-22T04:38:46;94003.50;;;17.06;100.00
53522;BME280;39398;48.382;9.802;2023-06-22T04:43:47;93986.84;;;17.34;100.00
53522;BME280;39398;48.382;9.802;2023-06-22T04:48:49;93980.00;;;17.50;100.00
53522;BME280;39398;48.382;9.802;2023-06-22T04:53:52;93972.44;;;17.70;100.00
53522;BME280;39398;48.382;9.802;2023-06-22T04:58:54;93965.94;;;17.54;100.00
53522;BME280;39398;48.382;9.802;2023-06-22T05:03:55;93971.03;;;17.67;100.00
53522;BME280;39398;48.382;9.802;2023-06-22T05:08:59;93958.53;;;17.80;100.00
53522;BME280;39398;48.382;9.802;2023-06-22T05:14:00;93949.25;;;17.82;100.00
53522;BME280;39398;48.382;9.802;2023-06-22T05:19:02;93947.09;;;17.96;100.00
53522;BME280;39398;48.382;9.802;2023-06-22T05:24:06;93944.75;;;18.11;100.00
53522;BME280;39398;48.382;9.802;2023-06-22T05:29:10;93932.94;;;18.36;100.00
53522;BME280;39398;48.382;9.802;2023-06-22T05:34:12;93931.38;;;18.69;100.00
53522;BME280;39398;48.382;9.802;2023-06-22T05:39:15;93924.94;;;18.98;100.00
53522;BME280;39398;48.382;9.802;2023-06-22T05:44:17;93914.66;;;19.63;100.00
53522;BME280;39398;48.382;9.802;2023-06-22T05:49:19;93906.81;;;19.78;100.00
53522;BME280;39398;48.382;9.802;2023-06-22T05:54:22;93891.91;;;20.04;100.00
53522;BME280;39398;48.382;9.802;2023-06-22T05:59:23;93906.47;;;20.62;100.00
53522;BME280;39398;48.382;9.802;2023-06-22T06:04:25;93897.84;;;20.87;100.00
53522;BME280;39398;48.382;9.802;2023-06-22T06:09:30;93907.84;;;20.65;100.00
53522;BME280;39398;48.382;9.802;2023-06-22T06:14:32;93899.63;;;21.46;100.00
53522;BME280;39398;48.382;9.802;2023-06-22T06:19:34;93896.72;;;21.53;100.00
53522;BME280;39398;48.382;9.802;2023-06-22T06:24:37;93888.94;;;21.56;100.00
53522;BME280;39398;48.382;9.802;2023-06-22T06:29:38;93891.00;;;21.92;100.00
53522;BME280;39398;48.382;9.802;2023-06-22T06:34:40;93899.59;;;22.72;100.00
53522;BME280;39398;48.382;9.802;2023-06-22T06:39:43;93873.44;;;22.52;100.00
53522;BME280;39398;48.382;9.802;2023-06-22T06:44:45;93885.31;;;22.56;100.00
53522;BME280;39398;48.382;9.802;2023-06-22T06:49:47;93881.06;;;23.11;100.00
53522;BME280;39398;48.382;9.802;2023-06-22T06:54:50;93877.25;;;23.43;100.00
53522;BME280;39398;48.382;9.802;2023-06-22T06:59:51;93864.03;;;23.41;100.00
53522;BME280;39398;48.382;9.802;2023-06-22T07:04:53;93863.28;;;23.20;100.00
53522;BME280;39398;48.382;9.802;2023-06-22T07:09:56;93866.41;;;23.84;100.00
53522;BME280;39398;48.382;9.802;2023-06-22T07:15:02;93865.22;;;24.05;100.00
53522;BME280;39398;48.382;9.802;2023-06-22T07:20:05;93859.34;;;23.98;100.00
53522;BME280;39398;48.382;9.802;2023-06-22T07:25:09;93861.16;;;24.08;100.00
53522;BME280;39398;48.382;9.802;2023-06-22T07:30:11;93850.22;;;24.39;100.00
53522;BME280;39398;48.382;9.802;2023-06-22T07:35:13;93851.63;;;23.71;100.00
53522;BME280;39398;48.382;9.802;2023-06-22T07:40:16;93847.75;;;24.47;100.00
53522;BME280;39398;48.382;9.802;2023-06-22T07:45:18;93852.50;;;25.63;100.00
53522;BME280;39398;48.382;9.802;2023-06-22T07:50:19;93835.53;;;24.16;100.00
53522;BME280;39398;48.382;9.802;2023-06-22T07:55:22;93845.06;;;24.47;100.00
53522;BME280;39398;48.382;9.802;2023-06-22T08:00:24;93844.06;;;25.12;100.00
53522;BME280;39398;48.382;9.802;2023-06-22T08:05:25;93844.47;;;25.82;100.00
53522;BME280;39398;48.382;9.802;2023-06-22T08:10:29;93831.44;;;25.02;100.00
53522;BME280;39398;48.382;9.802;2023-06-22T08:15:30;93823.81;;;25.91;100.00
53522;BME280;39398;48.382;9.802;2023-06-22T08:20:32;93821.41;;;26.52;100.00
53522;BME280;39398;48.382;9.802;2023-06-22T08:25:35;93812.22;;;26.85;100.00
53522;BME280;39398;48.382;9.802;2023-06-22T08:30:37;93811.13;;;26.86;100.00
53522;BME280;39398;48.382;9.802;2023-06-22T08:35:38;93813.16;;;26.19;100.00
53522;BME280;39398;48.382;9.802;2023-06-22T08:40:41;93827.13;;;27.02;100.00
53522;BME280;39398;48.382;9.802;2023-06-22T08:45:43;93816.84;;;27.64;100.00
53522;BME280;39398;48.382;9.802;2023-06-22T08:50:46;93825.88;;;27.73;100.00
53522;BME280;39398;48.382;9.802;2023-06-22T08:55:49;93826.06;;;27.49;100.00
53522;BME280;39398;48.382;9.802;2023-06-22T09:00:50;93825.69;;;27.97;100.00
53522;BME280;39398;48.382;9.802;2023-06-22T09:05:52;93839.78;;;27.99;100.00
53522;BME280;39398;48.382;9.802;2023-06-22T09:10:55;93833.25;;;28.64;100.00
53522;BME280;39398;48.382;9.802;2023-06-22T09:15:57;93863.06;;;28.28;100.00
53522;BME280;39398;48.382;9.802;2023-06-22T09:20:58;93875.31;;;28.89;100.00
53522;BME280;39398;48.382;9.802;2023-06-22T09:26:01;93902.25;;;29.58;100.00
53522;BME280;39398;48.382;9.802;2023-06-22T09:31:03;93875.03;;;29.89;100.00
53522;BME280;39398;48.382;9.802;2023-06-22T09:36:05;93873.00;;;29.19;100.00
53522;BME280;39398;48.382;9.802;2023-06-22T09:41:08;93886.59;;;29.95;100.00
53522;BME280;39398;48.382;9.802;2023-06-22T09:46:10;93870.28;;;29.19;100.00
53522;BME280;39398;48.382;9.802;2023-06-22T09:51:11;93868.72;;;30.11;100.00
53522;BME280;39398;48.382;9.802;2023-06-22T09:56:14;93844.84;;;30.08;100.00
53522;BME280;39398;48.382;9.802;2023-06-22T10:01:16;93855.19;;;29.27;100.00
53522;BME280;39398;48.382;9.802;2023-06-22T10:06:18;93845.00;;;30.03;100.00
53522;BME280;39398;48.382;9.802;2023-06-22T10:11:21;93846.34;;;30.80;100.00
53522;BME280;39398;48.382;9.802;2023-06-22T10:16:24;93848.50;;;30.52;97.86
53522;BME280;39398;48.382;9.802;2023-06-22T10:21:25;93817.59;;;30.66;97.76
53522;BME280;39398;48.382;9.802;2023-06-22T10:26:28;93816.00;;;30.65;99.00
53522;BME280;39398;48.382;9.802;2023-06-22T10:31:30;93800.25;;;30.27;96.54
53522;BME280;39398;48.382;9.802;2023-06-22T10:36:32;93811.38;;;29.99;100.00
53522;BME280;39398;48.382;9.802;2023-06-22T10:41:35;93813.88;;;30.27;100.00
53522;BME280;39398;48.382;9.802;2023-06-22T10:46:37;93805.13;;;29.99;100.00
53522;BME280;39398;48.382;9.802;2023-06-22T10:51:38;93802.91;;;30.01;100.00
53522;BME280;39398;48.382;9.802;2023-06-22T10:56:41;93798.66;;;29.77;100.00
53522;BME280;39398;48.382;9.802;2023-06-22T11:01:43;93817.09;;;29.58;100.00
53522;BME280;39398;48.382;9.802;2023-06-22T11:06:45;93806.50;;;29.48;100.00
53522;BME280;39398;48.382;9.802;2023-06-22T11:11:50;93815.03;;;29.95;100.00
53522;BME280;39398;48.382;9.802;2023-06-22T11:16:52;93815.19;;;30.64;100.00
53522;BME280;39398;48.382;9.802;2023-06-22T11:21:54;93803.84;;;30.05;100.00
53522;BME280;39398;48.382;9.802;2023-06-22T11:26:57;93789.41;;;30.79;100.00
53522;BME280;39398;48.382;9.802;2023-06-22T11:32:00;93782.78;;;30.19;100.00
53522;BME280;39398;48.382;9.802;2023-06-22T11:37:02;93792.09;;;30.35;100.00
53522;BME280;39398;48.382;9.802;2023-06-22T11:42:06;93789.84;;;30.20;100.00
53522;BME280;39398;48.382;9.802;2023-06-22T11:47:07;93791.63;;;29.85;100.00
53522;BME280;39398;48.382;9.802;2023-06-22T11:52:09;93798.38;;;29.87;100.00
53522;BME280;39398;48.382;9.802;2023-06-22T11:57:12;93806.63;;;29.65;100.00
53522;BME280;39398;48.382;9.802;2023-06-22T12:02:14;93796.19;;;30.07;100.00
53522;BME280;39398;48.382;9.802;2023-06-22T12:07:15;93785.41;;;30.76;100.00
53522;BME280;39398;48.382;9.802;2023-06-22T12:12:18;93779.91;;;30.24;100.00
53522;BME280;39398;48.382;9.802;2023-06-22T12:17:20;93772.25;;;29.86;100.00
53522;BME280;39398;48.382;9.802;2023-06-22T12:22:21;93768.97;;;29.27;100.00
53522;BME280;39398;48.382;9.802;2023-06-22T12:27:25;93781.72;;;29.80;100.00
53522;BME280;39398;48.382;9.802;2023-06-22T12:32:27;93778.81;;;30.25;100.00
53522;BME280;39398;48.382;9.802;2023-06-22T12:37:28;93782.34;;;30.34;100.00
53522;BME280;39398;48.382;9.802;2023-06-22T12:42:31;93783.50;;;30.77;100.00
53522;BME280;39398;48.382;9.802;2023-06-22T12:47:33;93779.00;;;30.64;100.00
53522;BME280;39398;48.382;9.802;2023-06-22T12:52:36;93778.00;;;30.59;100.00
53522;BME280;39398;48.382;9.802;2023-06-22T12:57:39;93773.50;;;31.07;100.00
53522;BME280;39398;48.382;9.802;2023-06-22T13:02:41;93770.09;;;30.15;100.00
53522;BME280;39398;48.382;9.802;2023-06-22T13:07:43;93776.91;;;30.78;100.00
53522;BME280;39398;48.382;9.802;2023-06-22T13:12:46;93758.41;;;30.14;100.00
53522;BME280;39398;48.382;9.802;2023-06-22T13:17:47;93771.28;;;30.92;100.00
53522;BME280;39398;48.382;9.802;2023-06-22T13:22:49;93766.97;;;30.65;100.00
53522;BME280;39398;48.382;9.802;2023-06-22T13:27:52;93762.63;;;30.29;100.00
53522;BME280;39398;48.382;9.802;2023-06-22T13:32:54;93773.38;;;30.95;100.00
53522;BME280;39398;48.382;9.802;2023-06-22T13:37:55;93768.22;;;30.76;100.00
53522;BME280;39398;48.382;9.802;2023-06-22T13:42:58;93767.47;;;30.84;100.00
53522;BME280;39398;48.382;9.802;2023-06-22T13:48:00;93753.81;;;30.93;100.00
53522;BME280;39398;48.382;9.802;2023-06-22T13:53:02;93747.59;;;30.57;100.00
53522;BME280;39398;48.382;9.802;2023-06-22T13:58:05;93737.66;;;30.35;100.00
53522;BME280;39398;48.382;9.802;2023-06-22T14:03:06;93729.31;;;30.41;100.00
53522;BME280;39398;48.382;9.802;2023-06-22T14:08:08;93728.66;;;30.87;100.00
53522;BME280;39398;48.382;9.802;2023-06-22T14:13:31;93732.47;;;30.95;100.00
53522;BME280;39398;48.382;9.802;2023-06-22T14:18:33;93727.22;;;30.90;100.00
53522;BME280;39398;48.382;9.802;2023-06-22T14:23:34;93700.91;;;30.85;100.00
53522;BME280;39398;48.382;9.802;2023-06-22T14:28:37;93700.47;;;30.57;100.00
53522;BME280;39398;48.382;9.802;2023-06-22T14:33:39;93694.88;;;30.36;100.00
53522;BME280;39398;48.382;9.802;2023-06-22T14:38:41;93692.94;;;30.54;100.00
53522;BME280;39398;48.382;9.802;2023-06-22T14:43:48;93695.03;;;30.22;100.00
53522;BME280;39398;48.382;9.802;2023-06-22T14:48:50;93685.19;;;29.86;100.00
53522;BME280;39398;48.382;9.802;2023-06-22T14:53:52;93691.78;;;30.11;100.00
53522;BME280;39398;48.382;9.802;2023-06-22T14:58:55;93688.94;;;30.34;100.00
53522;BME280;39398;48.382;9.802;2023-06-22T15:03:56;93687.16;;;30.03;100.00
53522;BME280;39398;48.382;9.802;2023-06-22T15:08:58;93687.91;;;29.69;100.00
53522;BME280;39398;48.382;9.802;2023-06-22T15:14:01;93686.66;;;29.44;100.00
53522;BME280;39398;48.382;9.802;2023-06-22T15:19:03;93698.84;;;30.04;100.00
53522;BME280;39398;48.382;9.802;2023-06-22T15:24:04;93697.53;;;29.93;100.00
53522;BME280;39398;48.382;9.802;2023-06-22T15:29:07;93698.50;;;29.48;100.00
53522;BME280;39398;48.382;9.802;2023-06-22T15:34:09;93689.16;;;29.63;100.00
53522;BME280;39398;48.382;9.802;2023-06-22T15:39:11;93677.97;;;29.64;100.00
53522;BME280;39398;48.382;9.802;2023-06-22T15:44:14;93679.56;;;29.65;100.00
53522;BME280;39398;48.382;9.802;2023-06-22T15:49:15;93690.78;;;29.24;100.00
53522;BME280;39398;48.382;9.802;2023-06-22T15:54:17;93687.34;;;28.87;100.00
53522;BME280;39398;48.382;9.802;2023-06-22T15:59:20;93675.78;;;28.73;100.00
53522;BME280;39398;48.382;9.802;2023-06-22T16:04:22;93669.88;;;28.48;100.00
53522;BME280;39398;48.382;9.802;2023-06-22T16:09:23;93650.91;;;28.12;100.00
53522;BME280;39398;48.382;9.802;2023-06-22T16:14:26;93611.06;;;29.06;100.00
53522;BME280;39398;48.382;9.802;2023-06-22T16:19:28;93617.25;;;29.29;100.00
53522;BME280;39398;48.382;9.802;2023-06-22T16:24:32;93622.34;;;29.31;100.00
53522;BME280;39398;48.382;9.802;2023-06-22T16:29:35;93626.66;;;29.23;100.00
53522;BME280;39398;48.382;9.802;2023-06-22T16:34:37;93626.56;;;29.06;100.00
53522;BME280;39398;48.382;9.802;2023-06-22T16:39:38;93606.50;;;29.24;100.00
53522;BME280;39398;48.382;9.802;2023-06-22T16:44:41;93594.13;;;29.75;100.00
53522;BME280;39398;48.382;9.802;2023-06-22T16:49:43;93595.56;;;30.33;100.00
53522;BME280;39398;48.382;9.802;2023-06-22T16:54:48;93599.84;;;30.52;97.74
53522;BME280;39398;48.382;9.802;2023-06-22T17:00:03;93587.88;;;29.83;97.40
53522;BME280;39398;48.382;9.802;2023-06-22T17:05:06;93576.91;;;29.23;100.00
53522;BME280;39398;48.382;9.802;2023-06-22T17:10:08;93580.94;;;28.94;100.00
53522;BME280;39398;48.382;9.802;2023-06-22T17:15:11;93576.50;;;28.36;100.00
53522;BME280;39398;48.382;9.802;2023-06-22T17:20:13;93587.19;;;28.10;100.00
53522;BME280;39398;48.382;9.802;2023-06-22T17:25:17;93600.84;;;27.96;100.00
53522;BME280;39398;48.382;9.802;2023-06-22T17:30:21;93617.16;;;27.82;100.00
53522;BME280;39398;48.382;9.802;2023-06-22T17:35:23;93623.22;;;27.51;100.00
53522;BME280;39398;48.382;9.802;2023-06-22T17:40:25;93656.63;;;27.74;100.00
53522;BME280;39398;48.382;9.802;2023-06-22T17:45:29;93666.94;;;27.22;100.00
53522;BME280;39398;48.382;9.802;2023-06-22T17:50:30;93667.47;;;26.78;97.64
53522;BME280;39398;48.382;9.802;2023-06-22T17:55:33;93676.22;;;26.88;92.07
53522;BME280;39398;48.382;9.802;2023-06-22T18:00:36;93670.91;;;26.97;87.53
53522;BME280;39398;48.382;9.802;2023-06-22T18:05:37;93668.78;;;26.48;82.78
53522;BME280;39398;48.382;9.802;2023-06-22T18:10:39;93634.13;;;26.50;84.74
53522;BME280;39398;48.382;9.802;2023-06-22T18:15:43;93640.38;;;26.45;85.24
53522;BME280;39398;48.382;9.802;2023-06-22T18:20:46;93625.72;;;26.00;87.32
53522;BME280;39398;48.382;9.802;2023-06-22T18:25:48;93627.31;;;25.44;92.74
53522;BME280;39398;48.382;9.802;2023-06-22T18:30:52;93602.41;;;25.28;94.70
53522;BME280;39398;48.382;9.802;2023-06-22T18:35:55;93621.94;;;25.20;97.52
53522;BME280;39398;48.382;9.802;2023-06-22T18:40:57;93655.63;;;24.50;100.00
53522;BME280;39398;48.382;9.802;2023-06-22T18:46:29;93715.91;;;24.70;100.00
53522;BME280;39398;48.382;9.802;2023-06-22T18:51:48;93745.50;;;25.09;100.00
53522;BME280;39398;48.382;9.802;2023-06-22T18:56:52;93750.88;;;25.38;100.00
53522;BME280;39398;48.382;9.802;2023-06-22T19:01:59;93707.63;;;24.61;100.00
53522;BME280;39398;48.382;9.802;2023-06-22T19:07:01;93746.91;;;24.72;100.00
53522;BME280;39398;48.382;9.802;2023-06-22T19:12:16;93747.56;;;24.88;100.00
53522;BME280;39398;48.382;9.802;2023-06-22T19:17:20;93745.72;;;24.54;100.00
53522;BME280;39398;48.382;9.802;2023-06-22T19:22:23;93714.56;;;24.33;100.00
53522;BME280;39398;48.382;9.802;2023-06-22T19:27:44;93733.28;;;23.75;100.00
53522;BME280;39398;48.382;9.802;2023-06-22T19:32:48;93723.91;;;23.57;100.00
53522;BME280;39398;48.382;9.802;2023-06-22T19:37:50;93741.81;;;23.22;100.00
53522;BME280;39398;48.382;9.802;2023-06-22T19:42:53;93731.13;;;23.02;100.00
53522;BME280;39398;48.382;9.802;2023-06-22T19:47:57;93740.28;;;23.01;100.00
53522;BME280;39398;48.382;9.802;2023-06-22T19:52:59;93745.41;;;22.61;100.00
53522;BME280;39398;48.382;9.802;2023-06-22T19:58:00;93761.28;;;22.63;100.00
53522;BME280;39398;48.382;9.802;2023-06-22T20:03:07;93754.03;;;22.22;100.00
53522;BME280;39398;48.382;9.802;2023-06-22T20:08:12;93762.34;;;22.26;100.00
53522;BME280;39398;48.382;9.802;2023-06-22T20:13:15;93757.25;;;22.19;100.00
53522;BME280;39398;48.382;9.802;2023-06-22T20:18:21;93763.91;;;21.96;100.00
53522;BME280;39398;48.382;9.802;2023-06-22T20:23:23;93755.31;;;21.99;100.00
53522;BME280;39398;48.382;9.802;2023-06-22T20:28:25;93763.91;;;22.06;100.00
53522;BME280;39398;48.382;9.802;2023-06-22T20:33:28;93781.72;;;22.18;100.00
53522;BME280;39398;48.382;9.802;2023-06-22T20:38:30;93783.50;;;21.87;100.00
53522;BME280;39398;48.382;9.802;2023-06-22T20:43:31;93797.25;;;22.05;100.00
53522;BME280;39398;48.382;9.802;2023-06-22T20:48:34;93783.75;;;21.85;100.00
53522;BME280;39398;48.382;9.802;2023-06-22T20:53:40;93793.06;;;21.62;100.00
53522;BME280;39398;48.382;9.802;2023-06-22T20:58:42;93800.13;;;21.89;100.00
53522;BME280;39398;48.382;9.802;2023-06-22T21:03:44;93821.13;;;21.87;100.00
53522;BME280;39398;48.382;9.802;2023-06-22T21:08:46;93826.00;;;22.05;100.00
53522;BME280;39398;48.382;9.802;2023-06-22T21:13:48;93830.28;;;22.01;100.00
53522;BME280;39398;48.382;9.802;2023-06-22T21:18:51;93834.59;;;21.97;100.00
53522;BME280;39398;48.382;9.802;2023-06-22T21:23:52;93843.50;;;22.13;100.00
53522;BME280;39398;48.382;9.802;2023-06-22T21:28:54;93844.31;;;22.13;100.00
53522;BME280;39398;48.382;9.802;2023-06-22T21:33:57;93877.59;;;21.97;100.00
53522;BME280;39398;48.382;9.802;2023-06-22T21:38:59;93889.16;;;21.45;100.00
53522;BME280;39398;48.382;9.802;2023-06-22T21:44:00;93898.44;;;20.95;100.00
53522;BME280;39398;48.382;9.802;2023-06-22T21:49:03;93892.72;;;20.86;100.00
53522;BME280;39398;48.382;9.802;2023-06-22T21:54:05;93901.91;;;20.36;100.00
53522;BME280;39398;48.382;9.802;2023-06-22T21:59:07;93901.31;;;20.34;100.00
53522;BME280;39398;48.382;9.802;2023-06-22T22:04:10;93889.22;;;20.04;100.00
53522;BME280;39398;48.382;9.802;2023-06-22T22:09:11;93887.56;;;20.03;100.00
53522;BME280;39398;48.382;9.802;2023-06-22T22:14:13;93888.34;;;19.98;100.00
53522;BME280;39398;48.382;9.802;2023-06-22T22:19:16;93888.66;;;20.02;100.00
53522;BME280;39398;48.382;9.802;2023-06-22T22:24:17;93895.53;;;19.54;100.00
53522;BME280;39398;48.382;9.802;2023-06-22T22:29:19;93896.06;;;19.95;100.00
53522;BME280;39398;48.382;9.802;2023-06-22T22:34:22;93916.56;;;20.06;100.00
53522;BME280;39398;48.382;9.802;2023-06-22T22:39:30;93928.53;;;20.20;100.00
53522;BME280;39398;48.382;9.802;2023-06-22T22:44:32;93931.13;;;20.15;100.00
53522;BME280;39398;48.382;9.802;2023-06-22T22:49:35;93926.22;;;20.07;100.00
53522;BME280;39398;48.382;9.802;2023-06-22T22:54:37;93923.84;;;19.50;100.00
53522;BME280;39398;48.382;9.802;2023-06-22T22:59:38;93932.72;;;19.34;100.00
53522;BME280;39398;48.382;9.802;2023-06-22T23:04:41;93951.91;;;19.64;100.00
53522;BME280;39398;48.382;9.802;2023-06-22T23:09:43;93959.16;;;18.96;100.00
53522;BME280;39398;48.382;9.802;2023-06-22T23:14:44;93969.28;;;19.11;100.00
53522;BME280;39398;48.382;9.802;2023-06-22T23:19:48;93978.56;;;19.93;100.00
53522;BME280;39398;48.382;9.802;2023-06-22T23:24:50;93984.19;;;19.91;100.00
53522;BME280;39398;48.382;9.802;2023-06-22T23:29:52;93980.81;;;20.01;100.00
53522;BME280;39398;48.382;9.802;2023-06-22T23:34:55;93974.84;;;19.77;100.00
53522;BME280;39398;48.382;9.802;2023-06-22T23:39:56;93984.47;;;19.56;100.00
53522;BME280;39398;48.382;9.802;2023-06-22T23:44:58;93979.25;;;19.33;100.00
53522;BME280;39398;48.382;9.802;2023-06-22T23:50:01;93988.16;;;19.55;100.00
53522;BME280;39398;48.382;9.802;2023-06-22T23:55:03;93996.94;;;19.67;100.00
